Armona, California
Current Conditions -  °F | °C
As of 7:53 PM on Wednesday 17 Dec 2014 (Local Time) from KHJO Reporting Station
Haze Haze  
Wind Chill: 46°   Ceiling: Unl
Heat Index: 48°   Visibility: 4mi
Dew Point: 46°   Wind: 5mph
Humidity: 93%   Direction: 130°SE
Pressure: 30.14"   Gusts: NA
Location:  36.32°N, 119.71°W
Report Text: KHJO 180353Z AUTO 13004KT 4SM BR SCT060 09/08 A3014 RMK AO2 SLP208 T00890078
Loading
Personal Weather Stations






























Interactive Weather Map New forecast layout! Learn more

10-Day Weather Forecast

Advertisements
Track Severe Weather on mobile